TGL66PC LFBO-LFRS
Flight info
| Callsign | TGL66PC |
|---|---|
| Flight time | 0h 48m |
| Altitude | 30000 |
| Route | LACOU DCT CHALA DCT CNA DCT MANAK |
| Aircraft | A320/M-SDE3FGHIRWY/LB1 |
Departure
| Time | 2026-04-29 07:44 |
|---|---|
| Airport | Toulouse-Blagnac Airport (LFBO) |
Arrival
| Time | 2026-04-29 08:32 |
|---|---|
| Airport | Nantes Atlantique Airport (LFRS) |
| Time | Latitude | Longitude | Altitude | Speed | Heading |
|---|---|---|---|---|---|
| 2026-04-29 07:06 | 43.63198 | 1.36963 | 495 ft | 0 kts | 109° |
| 2026-04-29 07:31 | 43.63202 | 1.36948 | 486 ft | 4 kts | 101° |
| 2026-04-29 07:31 | 43.63204 | 1.36912 | 488 ft | 4 kts | 90° |
| 2026-04-29 07:32 | 43.63206 | 1.36881 | 487 ft | 2 kts | 105° |
| 2026-04-29 07:32 | 43.63209 | 1.36847 | 488 ft | 4 kts | 75° |
| 2026-04-29 07:32 | 43.63198 | 1.36821 | 490 ft | 4 kts | 14° |
| 2026-04-29 07:32 | 43.63186 | 1.36820 | 486 ft | 0 kts | 334° |
| 2026-04-29 07:35 | 43.63198 | 1.36813 | 492 ft | 5 kts | 338° |
| 2026-04-29 07:35 | 43.63234 | 1.36784 | 493 ft | 6 kts | 323° |
| 2026-04-29 07:35 | 43.63266 | 1.36752 | 490 ft | 6 kts | 323° |
| 2026-04-29 07:36 | 43.63281 | 1.36704 | 493 ft | 5 kts | 265° |
| 2026-04-29 07:36 | 43.63264 | 1.36656 | 488 ft | 7 kts | 236° |
| 2026-04-29 07:36 | 43.63250 | 1.36589 | 490 ft | 9 kts | 286° |
| 2026-04-29 07:36 | 43.63304 | 1.36524 | 493 ft | 12 kts | 324° |
| 2026-04-29 07:37 | 43.63378 | 1.36445 | 493 ft | 13 kts | 322° |
| 2026-04-29 07:37 | 43.63446 | 1.36372 | 493 ft | 12 kts | 322° |
| 2026-04-29 07:37 | 43.63509 | 1.36310 | 494 ft | 10 kts | 323° |
| 2026-04-29 07:37 | 43.63563 | 1.36254 | 488 ft | 9 kts | 323° |
| 2026-04-29 07:38 | 43.63609 | 1.36206 | 490 ft | 8 kts | 322° |
| 2026-04-29 07:38 | 43.63648 | 1.36165 | 490 ft | 6 kts | 323° |
| 2026-04-29 07:38 | 43.63688 | 1.36123 | 493 ft | 9 kts | 323° |
| 2026-04-29 07:38 | 43.63743 | 1.36067 | 491 ft | 11 kts | 323° |
| 2026-04-29 07:39 | 43.63807 | 1.36001 | 495 ft | 12 kts | 323° |
| 2026-04-29 07:39 | 43.63873 | 1.35933 | 489 ft | 11 kts | 324° |
| 2026-04-29 07:39 | 43.63932 | 1.35871 | 490 ft | 11 kts | 322° |
| 2026-04-29 07:39 | 43.63999 | 1.35802 | 491 ft | 13 kts | 323° |
| 2026-04-29 07:40 | 43.64070 | 1.35728 | 489 ft | 12 kts | 323° |
| 2026-04-29 07:40 | 43.64136 | 1.35659 | 486 ft | 12 kts | 323° |
| 2026-04-29 07:40 | 43.64200 | 1.35592 | 490 ft | 12 kts | 322° |
| 2026-04-29 07:40 | 43.64268 | 1.35521 | 491 ft | 12 kts | 323° |
| 2026-04-29 07:41 | 43.64298 | 1.35431 | 489 ft | 10 kts | 263° |
| 2026-04-29 07:41 | 43.64263 | 1.35357 | 490 ft | 9 kts | 232° |
| 2026-04-29 07:41 | 43.64226 | 1.35290 | 491 ft | 10 kts | 233° |
| 2026-04-29 07:41 | 43.64179 | 1.35203 | 485 ft | 13 kts | 233° |
| 2026-04-29 07:42 | 43.64121 | 1.35097 | 491 ft | 13 kts | 232° |
| 2026-04-29 07:42 | 43.64074 | 1.35012 | 494 ft | 7 kts | 232° |
| 2026-04-29 07:42 | 43.64042 | 1.34983 | 495 ft | 4 kts | 173° |
| 2026-04-29 07:42 | 43.64024 | 1.34998 | 490 ft | 0 kts | 143° |
| 2026-04-29 07:43 | 43.63897 | 1.35131 | 490 ft | 61 kts | 142° |
| 2026-04-29 07:44 | 43.63373 | 1.35676 | 493 ft | 123 kts | 143° |
| 2026-04-29 07:44 | 43.62560 | 1.36511 | 669 ft | 157 kts | 142° |
| 2026-04-29 07:44 | 43.61636 | 1.37406 | 1269 ft | 167 kts | 142° |
| 2026-04-29 07:44 | 43.60636 | 1.38300 | 2014 ft | 172 kts | 149° |
| 2026-04-29 07:45 | 43.59415 | 1.38509 | 2591 ft | 197 kts | 190° |
| 2026-04-29 07:45 | 43.58580 | 1.37856 | 2804 ft | 225 kts | 220° |
| 2026-04-29 07:45 | 43.57807 | 1.34949 | 3442 ft | 271 kts | 272° |
| 2026-04-29 07:45 | 43.58503 | 1.32524 | 4348 ft | 279 kts | 309° |
| 2026-04-29 07:46 | 43.59504 | 1.31352 | 4980 ft | 283 kts | 331° |
| 2026-04-29 07:46 | 43.61401 | 1.30595 | 5944 ft | 285 kts | 354° |
| 2026-04-29 07:46 | 43.63397 | 1.30490 | 6648 ft | 289 kts | 1° |
| 2026-04-29 07:46 | 43.65420 | 1.30583 | 7363 ft | 292 kts | 2° |
| 2026-04-29 07:47 | 43.67427 | 1.30643 | 8292 ft | 294 kts | 357° |
| 2026-04-29 07:47 | 43.69430 | 1.30021 | 9093 ft | 298 kts | 337° |
| 2026-04-29 07:47 | 43.71348 | 1.28868 | 9916 ft | 302 kts | 334° |
| 2026-04-29 07:47 | 43.73298 | 1.27617 | 10412 ft | 320 kts | 333° |
| 2026-04-29 07:48 | 43.75372 | 1.26261 | 10835 ft | 336 kts | 333° |
| 2026-04-29 07:48 | 43.77507 | 1.24855 | 11534 ft | 343 kts | 332° |
| 2026-04-29 07:48 | 43.79680 | 1.23426 | 12310 ft | 347 kts | 332° |
| 2026-04-29 07:48 | 43.81876 | 1.21985 | 13086 ft | 351 kts | 332° |
| 2026-04-29 07:49 | 43.84090 | 1.20530 | 13871 ft | 353 kts | 333° |
| 2026-04-29 07:49 | 43.86316 | 1.19069 | 14556 ft | 356 kts | 333° |
| 2026-04-29 07:49 | 43.88568 | 1.17592 | 15199 ft | 360 kts | 333° |
| 2026-04-29 07:49 | 43.90854 | 1.16092 | 15827 ft | 364 kts | 333° |
| 2026-04-29 07:50 | 43.93128 | 1.14599 | 16461 ft | 369 kts | 333° |
| 2026-04-29 07:50 | 43.95469 | 1.13063 | 17041 ft | 375 kts | 333° |
| 2026-04-29 07:50 | 43.97846 | 1.11506 | 17653 ft | 379 kts | 333° |
| 2026-04-29 07:50 | 44.00251 | 1.09931 | 18269 ft | 384 kts | 333° |
| 2026-04-29 07:51 | 44.02675 | 1.08336 | 18814 ft | 387 kts | 333° |
| 2026-04-29 07:51 | 44.05113 | 1.06724 | 19397 ft | 389 kts | 333° |
| 2026-04-29 07:51 | 44.07570 | 1.05100 | 19978 ft | 392 kts | 332° |
| 2026-04-29 07:51 | 44.10039 | 1.03468 | 20541 ft | 394 kts | 332° |
| 2026-04-29 07:52 | 44.12535 | 1.01815 | 21097 ft | 397 kts | 332° |
| 2026-04-29 07:52 | 44.15038 | 1.00153 | 21640 ft | 400 kts | 332° |
| 2026-04-29 07:52 | 44.17560 | 0.98480 | 22162 ft | 403 kts | 332° |
| 2026-04-29 07:52 | 44.20103 | 0.96795 | 22698 ft | 406 kts | 331° |
| 2026-04-29 07:53 | 44.22669 | 0.95093 | 23227 ft | 408 kts | 331° |
| 2026-04-29 07:53 | 44.25244 | 0.93385 | 23682 ft | 411 kts | 331° |
| 2026-04-29 07:53 | 44.27839 | 0.91660 | 24106 ft | 414 kts | 331° |
| 2026-04-29 07:53 | 44.30406 | 0.89949 | 24531 ft | 416 kts | 330° |
| 2026-04-29 07:54 | 44.33007 | 0.88151 | 24945 ft | 417 kts | 329° |
| 2026-04-29 07:54 | 44.35599 | 0.86297 | 25378 ft | 419 kts | 329° |
| 2026-04-29 07:54 | 44.38193 | 0.84409 | 25787 ft | 422 kts | 328° |
| 2026-04-29 07:54 | 44.40799 | 0.82502 | 26192 ft | 424 kts | 328° |
| 2026-04-29 07:55 | 44.43417 | 0.80591 | 26609 ft | 426 kts | 328° |
| 2026-04-29 07:55 | 44.46050 | 0.78677 | 27017 ft | 428 kts | 328° |
| 2026-04-29 07:55 | 44.48700 | 0.76758 | 27411 ft | 430 kts | 328° |
| 2026-04-29 07:55 | 44.51365 | 0.74830 | 27807 ft | 432 kts | 328° |
| 2026-04-29 07:56 | 44.54052 | 0.72893 | 28180 ft | 435 kts | 328° |
| 2026-04-29 07:56 | 44.56751 | 0.70952 | 28540 ft | 437 kts | 328° |
| 2026-04-29 07:56 | 44.59467 | 0.68995 | 28930 ft | 439 kts | 328° |
| 2026-04-29 07:56 | 44.62190 | 0.67027 | 29294 ft | 442 kts | 328° |
| 2026-04-29 07:57 | 44.64889 | 0.65069 | 29663 ft | 444 kts | 328° |
| 2026-04-29 07:57 | 44.67639 | 0.63071 | 29912 ft | 445 kts | 328° |
| 2026-04-29 07:57 | 44.70353 | 0.61102 | 29945 ft | 431 kts | 328° |
| 2026-04-29 07:57 | 44.72980 | 0.59202 | 29945 ft | 418 kts | 328° |
| 2026-04-29 07:58 | 44.78111 | 0.55465 | 29943 ft | 413 kts | 327° |
| 2026-04-29 07:58 | 44.83199 | 0.51730 | 29949 ft | 412 kts | 327° |
| 2026-04-29 07:59 | 44.88271 | 0.48010 | 29948 ft | 412 kts | 327° |
| 2026-04-29 07:59 | 44.93364 | 0.44277 | 29950 ft | 412 kts | 327° |
| 2026-04-29 08:00 | 44.98463 | 0.40536 | 29944 ft | 412 kts | 327° |
| 2026-04-29 08:00 | 45.03528 | 0.36819 | 29953 ft | 413 kts | 327° |
| 2026-04-29 08:01 | 45.08633 | 0.33047 | 29940 ft | 414 kts | 327° |
| 2026-04-29 08:01 | 45.13712 | 0.29287 | 29930 ft | 414 kts | 327° |
| 2026-04-29 08:02 | 45.18830 | 0.25501 | 29930 ft | 415 kts | 327° |
| 2026-04-29 08:02 | 45.23952 | 0.21704 | 29944 ft | 415 kts | 327° |
| 2026-04-29 08:03 | 45.29074 | 0.17896 | 29940 ft | 416 kts | 327° |
| 2026-04-29 08:03 | 45.34174 | 0.14031 | 29935 ft | 413 kts | 322° |
| 2026-04-29 08:04 | 45.38480 | 0.08847 | 29945 ft | 403 kts | 308° |
| 2026-04-29 08:04 | 45.42408 | 0.03140 | 29942 ft | 403 kts | 308° |
| 2026-04-29 08:05 | 45.46344 | -0.02558 | 29959 ft | 403 kts | 308° |
| 2026-04-29 08:05 | 45.50252 | -0.08229 | 29947 ft | 403 kts | 308° |
| 2026-04-29 08:06 | 45.54183 | -0.13945 | 29942 ft | 403 kts | 308° |
| 2026-04-29 08:06 | 45.58101 | -0.19663 | 29954 ft | 402 kts | 308° |
| 2026-04-29 08:07 | 45.62007 | -0.25365 | 29747 ft | 396 kts | 308° |
| 2026-04-29 08:07 | 45.63919 | -0.28158 | 29461 ft | 390 kts | 308° |
| 2026-04-29 08:07 | 45.65825 | -0.30902 | 29182 ft | 389 kts | 311° |
| 2026-04-29 08:08 | 45.67929 | -0.33378 | 28899 ft | 391 kts | 315° |
| 2026-04-29 08:08 | 45.70063 | -0.35779 | 28619 ft | 390 kts | 315° |
| 2026-04-29 08:08 | 45.72192 | -0.38174 | 28355 ft | 389 kts | 316° |
| 2026-04-29 08:08 | 45.74290 | -0.40531 | 28086 ft | 388 kts | 316° |
| 2026-04-29 08:09 | 45.76414 | -0.42921 | 27822 ft | 386 kts | 316° |
| 2026-04-29 08:09 | 45.78523 | -0.45301 | 27570 ft | 385 kts | 316° |
| 2026-04-29 08:09 | 45.80617 | -0.47673 | 27308 ft | 382 kts | 316° |
| 2026-04-29 08:09 | 45.82688 | -0.50020 | 26951 ft | 377 kts | 316° |
| 2026-04-29 08:10 | 45.84741 | -0.52347 | 26522 ft | 374 kts | 316° |
| 2026-04-29 08:10 | 45.86777 | -0.54652 | 26085 ft | 372 kts | 316° |
| 2026-04-29 08:10 | 45.88802 | -0.56953 | 25644 ft | 370 kts | 316° |
| 2026-04-29 08:10 | 45.90814 | -0.59244 | 25214 ft | 368 kts | 316° |
| 2026-04-29 08:11 | 45.92797 | -0.61498 | 24765 ft | 367 kts | 317° |
| 2026-04-29 08:11 | 45.94804 | -0.63781 | 24306 ft | 367 kts | 317° |
| 2026-04-29 08:11 | 45.96803 | -0.66060 | 23855 ft | 367 kts | 317° |
| 2026-04-29 08:11 | 45.98812 | -0.68354 | 23362 ft | 367 kts | 317° |
| 2026-04-29 08:12 | 46.00812 | -0.70640 | 22882 ft | 366 kts | 317° |
| 2026-04-29 08:12 | 46.02810 | -0.72927 | 22429 ft | 365 kts | 317° |
| 2026-04-29 08:12 | 46.04791 | -0.75195 | 21985 ft | 363 kts | 317° |
| 2026-04-29 08:12 | 46.06762 | -0.77453 | 21547 ft | 362 kts | 317° |
| 2026-04-29 08:13 | 46.08729 | -0.79705 | 21120 ft | 360 kts | 318° |
| 2026-04-29 08:13 | 46.10692 | -0.81953 | 20667 ft | 360 kts | 318° |
| 2026-04-29 08:13 | 46.12647 | -0.84192 | 20246 ft | 359 kts | 318° |
| 2026-04-29 08:13 | 46.14597 | -0.86429 | 19820 ft | 358 kts | 318° |
| 2026-04-29 08:14 | 46.16545 | -0.88665 | 19392 ft | 358 kts | 318° |
| 2026-04-29 08:14 | 46.18489 | -0.90901 | 18981 ft | 357 kts | 319° |
| 2026-04-29 08:14 | 46.20428 | -0.93135 | 18570 ft | 356 kts | 319° |
| 2026-04-29 08:14 | 46.22365 | -0.95371 | 18130 ft | 356 kts | 319° |
| 2026-04-29 08:15 | 46.24295 | -0.97601 | 17694 ft | 354 kts | 319° |
| 2026-04-29 08:15 | 46.26214 | -0.99817 | 17283 ft | 352 kts | 319° |
| 2026-04-29 08:15 | 46.28121 | -1.02024 | 16893 ft | 350 kts | 320° |
| 2026-04-29 08:15 | 46.30018 | -1.04221 | 16497 ft | 348 kts | 320° |
| 2026-04-29 08:16 | 46.31902 | -1.06405 | 16110 ft | 346 kts | 320° |
| 2026-04-29 08:16 | 46.33774 | -1.08579 | 15733 ft | 344 kts | 320° |
| 2026-04-29 08:16 | 46.35641 | -1.10748 | 15360 ft | 343 kts | 320° |
| 2026-04-29 08:16 | 46.37471 | -1.12874 | 14986 ft | 341 kts | 320° |
| 2026-04-29 08:17 | 46.39315 | -1.15019 | 14607 ft | 339 kts | 320° |
| 2026-04-29 08:17 | 46.41156 | -1.17163 | 14242 ft | 337 kts | 320° |
| 2026-04-29 08:17 | 46.42988 | -1.19299 | 13868 ft | 336 kts | 320° |
| 2026-04-29 08:17 | 46.44806 | -1.21421 | 13490 ft | 335 kts | 319° |
| 2026-04-29 08:18 | 46.46615 | -1.23535 | 13096 ft | 332 kts | 320° |
| 2026-04-29 08:18 | 46.48410 | -1.25634 | 12726 ft | 329 kts | 320° |
| 2026-04-29 08:18 | 46.50166 | -1.27685 | 12389 ft | 326 kts | 321° |
| 2026-04-29 08:18 | 46.51930 | -1.29748 | 12018 ft | 324 kts | 321° |
| 2026-04-29 08:19 | 46.53680 | -1.31798 | 11645 ft | 322 kts | 321° |
| 2026-04-29 08:19 | 46.55425 | -1.33841 | 11276 ft | 321 kts | 322° |
| 2026-04-29 08:19 | 46.57162 | -1.35877 | 10885 ft | 321 kts | 322° |
| 2026-04-29 08:19 | 46.58913 | -1.37877 | 10505 ft | 320 kts | 327° |
| 2026-04-29 08:20 | 46.60873 | -1.39383 | 10115 ft | 317 kts | 342° |
| 2026-04-29 08:20 | 46.62969 | -1.40263 | 9840 ft | 310 kts | 349° |
| 2026-04-29 08:20 | 46.65034 | -1.41041 | 9533 ft | 305 kts | 348° |
| 2026-04-29 08:20 | 46.67092 | -1.41829 | 9141 ft | 304 kts | 348° |
| 2026-04-29 08:21 | 46.69110 | -1.42606 | 8778 ft | 303 kts | 348° |
| 2026-04-29 08:21 | 46.71140 | -1.43388 | 8420 ft | 301 kts | 348° |
| 2026-04-29 08:21 | 46.73156 | -1.44172 | 8039 ft | 299 kts | 348° |
| 2026-04-29 08:21 | 46.75160 | -1.44964 | 7657 ft | 297 kts | 348° |
| 2026-04-29 08:22 | 46.77153 | -1.45755 | 7300 ft | 295 kts | 348° |
| 2026-04-29 08:22 | 46.79131 | -1.46540 | 6941 ft | 293 kts | 348° |
| 2026-04-29 08:22 | 46.81072 | -1.47309 | 6586 ft | 291 kts | 348° |
| 2026-04-29 08:22 | 46.83019 | -1.48083 | 6200 ft | 289 kts | 348° |
| 2026-04-29 08:23 | 46.84943 | -1.48853 | 5961 ft | 281 kts | 348° |
| 2026-04-29 08:23 | 46.86796 | -1.49599 | 5824 ft | 270 kts | 348° |
| 2026-04-29 08:23 | 46.88582 | -1.50316 | 5688 ft | 260 kts | 348° |
| 2026-04-29 08:23 | 46.90285 | -1.51136 | 5413 ft | 258 kts | 333° |
| 2026-04-29 08:24 | 46.91506 | -1.53027 | 5157 ft | 261 kts | 294° |
| 2026-04-29 08:24 | 46.91777 | -1.55616 | 4841 ft | 259 kts | 263° |
| 2026-04-29 08:24 | 46.91494 | -1.58219 | 4488 ft | 259 kts | 257° |
| 2026-04-29 08:24 | 46.91219 | -1.60783 | 4177 ft | 259 kts | 262° |
| 2026-04-29 08:25 | 46.91147 | -1.63414 | 3908 ft | 258 kts | 270° |
| 2026-04-29 08:25 | 46.91287 | -1.66027 | 3585 ft | 258 kts | 277° |
| 2026-04-29 08:25 | 46.91589 | -1.68595 | 3330 ft | 255 kts | 282° |
| 2026-04-29 08:25 | 46.92011 | -1.71088 | 3184 ft | 249 kts | 286° |
| 2026-04-29 08:26 | 46.92526 | -1.73467 | 3062 ft | 242 kts | 290° |
| 2026-04-29 08:26 | 46.93200 | -1.75673 | 2963 ft | 233 kts | 310° |
| 2026-04-29 08:26 | 46.94457 | -1.76944 | 2987 ft | 213 kts | 351° |
| 2026-04-29 08:26 | 46.95823 | -1.76874 | 3007 ft | 185 kts | 26° |
| 2026-04-29 08:27 | 46.96758 | -1.75827 | 2990 ft | 160 kts | 62° |
| 2026-04-29 08:27 | 46.97424 | -1.74645 | 3017 ft | 150 kts | 37° |
| 2026-04-29 08:27 | 46.98364 | -1.74043 | 2985 ft | 143 kts | 37° |
| 2026-04-29 08:27 | 46.99219 | -1.73341 | 2982 ft | 140 kts | 37° |
| 2026-04-29 08:28 | 47.00067 | -1.72671 | 2979 ft | 140 kts | 36° |
| 2026-04-29 08:28 | 47.00933 | -1.72001 | 2929 ft | 141 kts | 35° |
| 2026-04-29 08:28 | 47.01801 | -1.71338 | 2789 ft | 141 kts | 35° |
| 2026-04-29 08:28 | 47.02669 | -1.70677 | 2614 ft | 140 kts | 36° |
| 2026-04-29 08:29 | 47.03532 | -1.70023 | 2443 ft | 140 kts | 35° |
| 2026-04-29 08:29 | 47.04401 | -1.69364 | 2266 ft | 142 kts | 36° |
| 2026-04-29 08:29 | 47.05275 | -1.68702 | 2072 ft | 141 kts | 35° |
| 2026-04-29 08:29 | 47.06145 | -1.68043 | 1886 ft | 140 kts | 35° |
| 2026-04-29 08:30 | 47.07007 | -1.67389 | 1707 ft | 139 kts | 35° |
| 2026-04-29 08:30 | 47.08728 | -1.66083 | 1320 ft | 138 kts | 34° |
| 2026-04-29 08:30 | 47.09581 | -1.65436 | 1126 ft | 138 kts | 33° |
| 2026-04-29 08:31 | 47.10143 | -1.65009 | 1013 ft | 137 kts | 32° |
| 2026-04-29 08:31 | 47.10978 | -1.64375 | 827 ft | 135 kts | 32° |
| 2026-04-29 08:31 | 47.11797 | -1.63753 | 644 ft | 132 kts | 30° |
| 2026-04-29 08:31 | 47.12611 | -1.63134 | 475 ft | 131 kts | 30° |
| 2026-04-29 08:32 | 47.13416 | -1.62522 | 307 ft | 129 kts | 29° |
| 2026-04-29 08:32 | 47.14467 | -1.61722 | 106 ft | 128 kts | 29° |
| 2026-04-29 08:32 | 47.14963 | -1.61338 | 99 ft | 111 kts | 29° |
| 2026-04-29 08:32 | 47.15617 | -1.60843 | 100 ft | 47 kts | 27° |
| 2026-04-29 08:33 | 47.15744 | -1.60747 | 99 ft | 14 kts | 27° |
| 2026-04-29 08:33 | 47.15817 | -1.60689 | 98 ft | 16 kts | 37° |
| 2026-04-29 08:33 | 47.15829 | -1.60561 | 98 ft | 10 kts | 123° |
| 2026-04-29 08:33 | 47.15804 | -1.60514 | 99 ft | 0 kts | 129° |
| 2026-04-29 08:37 | 47.15786 | -1.60488 | 102 ft | 5 kts | 141° |
| 2026-04-29 08:37 | 47.15760 | -1.60461 | 100 ft | 5 kts | 144° |
| 2026-04-29 08:37 | 47.15723 | -1.60423 | 101 ft | 8 kts | 144° |
| 2026-04-29 08:38 | 47.15682 | -1.60373 | 101 ft | 6 kts | 137° |
| 2026-04-29 08:38 | 47.15680 | -1.60327 | 101 ft | 4 kts | 90° |
| 2026-04-29 08:38 | 47.15692 | -1.60298 | 100 ft | 3 kts | 48° |
| 2026-04-29 08:38 | 47.15706 | -1.60277 | 100 ft | 2 kts | 45° |
| 2026-04-29 08:39 | 47.15710 | -1.60271 | 100 ft | 0 kts | 44° |